createdAt,value
2018-10-07T00:00:53.941Z,13.50
2018-10-07T00:03:30.127Z,13.50
2018-10-07T00:06:06.465Z,13.50
2018-10-07T00:08:42.468Z,13.50
2018-10-07T00:11:18.659Z,13.40
2018-10-07T00:13:54.863Z,13.40
2018-10-07T00:16:30.939Z,13.40
2018-10-07T00:19:07.167Z,13.30
2018-10-07T00:21:43.275Z,13.30
2018-10-07T00:24:19.474Z,13.30
2018-10-07T00:26:55.645Z,13.30
2018-10-07T00:29:31.814Z,13.30
2018-10-07T00:32:14.011Z,13.30
2018-10-07T00:34:50.211Z,13.30
2018-10-07T00:37:26.391Z,13.30
2018-10-07T00:40:02.578Z,13.20
2018-10-07T00:42:38.616Z,13.20
2018-10-07T00:45:14.846Z,13.20
2018-10-07T00:47:50.946Z,13.10
2018-10-07T00:50:27.119Z,13.10
2018-10-07T00:53:03.225Z,13.00
2018-10-07T00:55:39.387Z,13.00
2018-10-07T00:58:15.502Z,13.00
2018-10-07T01:00:51.557Z,13.00
2018-10-07T01:03:27.692Z,13.00
2018-10-07T01:06:03.859Z,12.90
2018-10-07T01:08:40.041Z,12.90
2018-10-07T01:11:16.160Z,12.90
2018-10-07T01:13:52.347Z,12.90
2018-10-07T01:16:28.539Z,12.80
2018-10-07T01:19:04.734Z,12.70
2018-10-07T01:21:40.924Z,12.70
2018-10-07T01:24:17.015Z,12.70
2018-10-07T01:26:53.278Z,12.70
2018-10-07T01:29:29.510Z,12.70
2018-10-07T01:32:06.683Z,12.70
2018-10-07T01:34:42.870Z,12.60
2018-10-07T01:37:18.927Z,12.60
2018-10-07T01:39:54.987Z,12.60
2018-10-07T01:42:31.109Z,12.60
2018-10-07T01:45:07.271Z,12.50
2018-10-07T01:47:43.422Z,12.50
2018-10-07T01:50:19.528Z,12.40
2018-10-07T01:52:55.685Z,12.40
2018-10-07T01:55:31.733Z,12.30
2018-10-07T01:58:07.814Z,12.30
2018-10-07T02:00:43.982Z,12.20
2018-10-07T02:03:19.993Z,12.20
2018-10-07T02:05:56.180Z,12.10
2018-10-07T02:08:32.341Z,12.20
2018-10-07T02:11:08.639Z,12.20
2018-10-07T02:13:44.640Z,12.20
2018-10-07T02:16:20.814Z,12.20
2018-10-07T02:18:56.937Z,12.10
2018-10-07T02:21:33.428Z,12.10
2018-10-07T02:24:09.465Z,12.10
2018-10-07T02:26:45.656Z,12.10
2018-10-07T02:29:21.720Z,12.10
2018-10-07T02:31:57.691Z,12.10
2018-10-07T02:34:33.836Z,12.00
2018-10-07T02:37:10.017Z,12.00
2018-10-07T02:39:46.158Z,11.90
2018-10-07T02:42:22.284Z,11.90
2018-10-07T02:44:58.476Z,11.90
2018-10-07T02:47:34.741Z,11.90
2018-10-07T02:50:20.489Z,11.90
2018-10-07T02:52:57.381Z,11.90
2018-10-07T02:55:33.393Z,11.90
2018-10-07T02:58:10.174Z,11.90
2018-10-07T03:00:46.292Z,11.90
2018-10-07T03:03:22.501Z,11.80
2018-10-07T03:05:58.627Z,11.80
2018-10-07T03:08:34.805Z,11.80
2018-10-07T03:11:11.049Z,11.80
2018-10-07T03:13:47.236Z,11.80
2018-10-07T03:16:23.353Z,11.80
2018-10-07T03:18:59.460Z,11.80
2018-10-07T03:21:35.686Z,11.80
2018-10-07T03:24:11.695Z,11.70
2018-10-07T03:26:47.799Z,11.70
2018-10-07T03:29:24.072Z,11.70
2018-10-07T03:32:00.247Z,11.70
2018-10-07T03:34:36.401Z,11.80
2018-10-07T03:37:12.629Z,11.80
2018-10-07T03:39:48.803Z,11.80
2018-10-07T03:42:24.971Z,11.80
2018-10-07T03:45:01.110Z,11.80
2018-10-07T03:47:37.275Z,11.90
2018-10-07T03:50:13.308Z,11.80
2018-10-07T03:52:49.527Z,11.80
2018-10-07T03:55:25.570Z,11.80
2018-10-07T03:58:01.716Z,11.70
2018-10-07T04:00:37.918Z,11.70
2018-10-07T04:03:14.116Z,11.70
2018-10-07T04:05:50.222Z,11.70
2018-10-07T04:08:26.273Z,11.60
2018-10-07T04:11:02.316Z,11.60
2018-10-07T04:13:38.505Z,11.60
2018-10-07T04:16:14.672Z,11.50
2018-10-07T04:18:50.918Z,11.50
2018-10-07T04:21:27.058Z,11.50
2018-10-07T04:24:03.833Z,11.50
2018-10-07T04:26:39.957Z,11.50
2018-10-07T04:29:16.075Z,11.50
2018-10-07T04:31:52.057Z,11.50
2018-10-07T04:34:28.257Z,11.50
2018-10-07T04:37:04.193Z,11.50
2018-10-07T04:39:40.380Z,11.50
2018-10-07T04:42:16.606Z,11.50
2018-10-07T04:44:52.706Z,11.40
2018-10-07T04:47:28.661Z,11.50
2018-10-07T04:50:06.064Z,11.40
2018-10-07T04:52:42.229Z,11.40
2018-10-07T04:55:18.408Z,11.30
2018-10-07T04:57:54.566Z,11.30
2018-10-07T05:00:30.703Z,11.40
2018-10-07T05:03:06.900Z,11.40
2018-10-07T05:05:42.980Z,11.30
2018-10-07T05:08:19.034Z,11.30
2018-10-07T05:10:56.559Z,11.30
2018-10-07T05:13:46.944Z,11.20
2018-10-07T05:16:31.951Z,11.20
2018-10-07T05:19:08.045Z,11.10
2018-10-07T05:21:44.151Z,11.10
2018-10-07T05:24:20.380Z,11.10
2018-10-07T05:26:56.595Z,11.10
2018-10-07T05:29:32.654Z,11.00
2018-10-07T05:32:08.787Z,11.00
2018-10-07T05:34:45.023Z,11.00
2018-10-07T05:37:21.120Z,11.00
2018-10-07T05:39:57.220Z,10.90
2018-10-07T05:42:33.347Z,10.90
2018-10-07T05:45:09.549Z,11.00
2018-10-07T05:47:45.611Z,11.00
2018-10-07T05:50:21.823Z,11.00
2018-10-07T05:52:57.898Z,11.10
2018-10-07T05:55:34.158Z,11.10
2018-10-07T05:58:10.246Z,11.10
2018-10-07T06:00:46.475Z,11.20
2018-10-07T06:03:41.349Z,11.20
2018-10-07T06:06:17.351Z,11.30
2018-10-07T06:08:53.862Z,11.40
2018-10-07T06:11:30.011Z,11.30
2018-10-07T06:14:06.367Z,11.40
2018-10-07T06:16:42.566Z,11.40
2018-10-07T06:19:18.667Z,11.40
2018-10-07T06:21:55.048Z,11.50
2018-10-07T06:24:31.160Z,11.60
2018-10-07T06:27:07.707Z,11.80
2018-10-07T06:29:43.762Z,12.00
2018-10-07T06:32:19.946Z,12.20
2018-10-07T06:34:56.076Z,12.50
2018-10-07T06:37:32.143Z,12.80
2018-10-07T06:40:08.304Z,13.20
2018-10-07T06:42:44.641Z,13.60
2018-10-07T06:45:20.762Z,14.00
2018-10-07T06:47:56.830Z,14.30
2018-10-07T06:50:33.006Z,14.60
2018-10-07T06:53:09.228Z,14.90
2018-10-07T06:55:45.271Z,15.20
2018-10-07T06:58:21.440Z,15.40
2018-10-07T07:00:57.683Z,15.70
2018-10-07T07:03:33.812Z,15.90
2018-10-07T07:06:09.843Z,15.80
2018-10-07T07:08:46.041Z,16.00
2018-10-07T07:11:22.161Z,16.10
2018-10-07T07:13:58.350Z,15.80
2018-10-07T07:16:34.576Z,15.90
2018-10-07T07:19:10.618Z,16.00
2018-10-07T07:21:46.648Z,16.10
2018-10-07T07:24:22.780Z,16.00
2018-10-07T07:26:59.007Z,16.10
2018-10-07T07:29:35.639Z,16.10
2018-10-07T07:32:11.823Z,16.00
2018-10-07T07:34:47.987Z,16.20
2018-10-07T07:37:24.138Z,16.20
2018-10-07T07:40:00.092Z,16.20
2018-10-07T07:42:36.206Z,16.20
2018-10-07T07:45:12.430Z,16.20
2018-10-07T07:47:48.484Z,16.20
2018-10-07T07:50:24.490Z,16.40
2018-10-07T07:53:00.704Z,16.50
2018-10-07T07:55:36.990Z,16.70
2018-10-07T07:58:13.026Z,16.80
2018-10-07T08:00:49.095Z,16.80
2018-10-07T08:03:25.322Z,16.80
2018-10-07T08:06:01.521Z,16.70
2018-10-07T08:08:37.747Z,16.70
2018-10-07T08:11:13.699Z,16.60
2018-10-07T08:13:49.746Z,16.50
2018-10-07T08:16:25.899Z,16.50
2018-10-07T08:19:01.952Z,16.50
2018-10-07T08:21:38.143Z,16.50
2018-10-07T08:24:14.093Z,16.60
2018-10-07T08:26:50.379Z,16.50
2018-10-07T08:29:26.482Z,16.60
2018-10-07T08:32:02.629Z,16.70
2018-10-07T08:34:38.762Z,16.70
2018-10-07T08:37:14.947Z,16.70
2018-10-07T08:39:51.264Z,16.80
2018-10-07T08:42:27.267Z,17.00
2018-10-07T08:45:03.301Z,17.20
2018-10-07T08:47:39.497Z,17.30
2018-10-07T08:50:15.766Z,17.60
2018-10-07T08:52:51.931Z,17.90
2018-10-07T08:55:27.971Z,18.10
2018-10-07T08:58:04.317Z,18.20
2018-10-07T09:00:40.452Z,18.40
2018-10-07T09:03:16.753Z,18.50
2018-10-07T09:05:52.903Z,18.70
2018-10-07T09:08:29.080Z,18.90
2018-10-07T09:11:05.275Z,19.10
2018-10-07T09:13:41.290Z,19.20
2018-10-07T09:16:17.410Z,19.50
2018-10-07T09:18:53.539Z,19.70
2018-10-07T09:21:29.863Z,20.10
2018-10-07T09:24:05.888Z,20.30
2018-10-07T09:26:42.146Z,20.40
2018-10-07T09:29:18.249Z,20.60
2018-10-07T09:31:54.406Z,20.60
2018-10-07T09:34:30.582Z,20.60
2018-10-07T09:37:07.046Z,20.70
2018-10-07T09:39:43.123Z,21.00
2018-10-07T09:42:19.262Z,20.70
2018-10-07T09:44:55.421Z,20.20
2018-10-07T09:47:31.572Z,20.10
2018-10-07T09:50:07.740Z,19.50
2018-10-07T09:52:43.768Z,19.30
2018-10-07T09:55:19.883Z,19.30
2018-10-07T09:57:56.005Z,19.20
2018-10-07T10:00:37.360Z,19.40
2018-10-07T10:03:13.426Z,19.50
2018-10-07T10:05:49.675Z,19.70
2018-10-07T10:08:25.758Z,19.80
2018-10-07T10:11:01.974Z,19.70
2018-10-07T10:13:37.984Z,19.40
2018-10-07T10:16:14.020Z,19.10
2018-10-07T10:18:51.747Z,18.70
2018-10-07T10:21:44.070Z,18.40
2018-10-07T10:24:36.891Z,18.20
2018-10-07T10:27:33.216Z,18.30
2018-10-07T10:30:24.831Z,18.60
2018-10-07T10:33:18.247Z,19.00
2018-10-07T10:36:10.205Z,19.10
2018-10-07T10:39:07.236Z,18.80
2018-10-07T10:42:00.897Z,19.00
2018-10-07T10:44:46.656Z,19.40
2018-10-07T10:47:32.427Z,19.90
2018-10-07T10:50:39.265Z,20.00
2018-10-07T10:54:30.469Z,19.90
2018-10-07T10:57:17.190Z,20.30
2018-10-07T11:00:07.756Z,20.60
2018-10-07T11:02:57.157Z,20.50
2018-10-07T11:05:48.976Z,20.70
2018-10-07T11:08:37.896Z,21.00
2018-10-07T11:11:26.423Z,20.70
2018-10-07T11:14:58.742Z,20.50
2018-10-07T11:17:51.014Z,20.20
2018-10-07T11:20:38.356Z,19.80
2018-10-07T11:23:33.073Z,19.50
2018-10-07T11:27:26.202Z,19.20
2018-10-07T11:30:20.175Z,19.10
2018-10-07T11:33:13.724Z,19.40
2018-10-07T11:36:22.478Z,19.70
2018-10-07T11:39:17.612Z,20.10
2018-10-07T11:42:09.950Z,20.50
2018-10-07T11:44:57.181Z,20.80
2018-10-07T11:47:46.521Z,20.90
2018-10-07T11:50:51.183Z,20.50
2018-10-07T11:53:46.307Z,19.90
2018-10-07T11:56:22.435Z,19.60
2018-10-07T11:58:58.601Z,19.30
2018-10-07T12:01:34.851Z,19.20
2018-10-07T12:04:11.122Z,18.90
2018-10-07T12:06:47.311Z,18.90
2018-10-07T12:09:23.462Z,18.70
2018-10-07T12:11:59.437Z,18.60
2018-10-07T12:14:35.764Z,18.60
2018-10-07T12:17:11.913Z,18.50
2018-10-07T12:19:47.913Z,18.40
2018-10-07T12:22:24.183Z,18.30
2018-10-07T12:25:00.473Z,18.30
2018-10-07T12:27:36.583Z,18.10
2018-10-07T12:30:12.740Z,17.90
2018-10-07T12:32:48.768Z,17.80
2018-10-07T12:35:24.987Z,17.80
2018-10-07T12:38:01.108Z,17.70
2018-10-07T12:40:37.188Z,17.60
2018-10-07T12:43:13.339Z,17.60
2018-10-07T12:45:49.503Z,17.60
2018-10-07T12:48:25.682Z,17.50
2018-10-07T12:51:01.815Z,17.30
2018-10-07T12:53:37.997Z,17.30
2018-10-07T12:56:14.151Z,17.10
2018-10-07T12:58:50.238Z,17.10
2018-10-07T13:01:26.463Z,17.10
2018-10-07T13:04:02.721Z,17.00
2018-10-07T13:06:38.868Z,17.00
2018-10-07T13:09:15.566Z,17.00
2018-10-07T13:11:51.655Z,17.00
2018-10-07T13:14:27.907Z,17.10
2018-10-07T13:17:03.933Z,17.00
2018-10-07T13:19:40.146Z,16.80
2018-10-07T13:22:16.356Z,16.80
2018-10-07T13:24:52.417Z,16.70
2018-10-07T13:27:28.452Z,16.50
2018-10-07T13:30:05.479Z,16.40
2018-10-07T13:32:41.511Z,16.30
2018-10-07T13:35:17.541Z,16.20
2018-10-07T13:37:53.563Z,16.10
2018-10-07T13:40:29.679Z,16.10
2018-10-07T13:43:05.861Z,16.00
2018-10-07T13:45:41.878Z,15.90
2018-10-07T13:48:18.020Z,15.90
2018-10-07T13:50:54.185Z,15.80
2018-10-07T13:53:30.448Z,15.70
2018-10-07T13:56:06.671Z,15.70
2018-10-07T13:58:42.819Z,15.70
2018-10-07T14:01:18.946Z,15.70
2018-10-07T14:03:55.156Z,15.60
2018-10-07T14:06:31.344Z,15.60
2018-10-07T14:09:09.029Z,15.50
2018-10-07T14:11:44.965Z,15.40
2018-10-07T14:14:21.098Z,15.20
2018-10-07T14:16:57.363Z,15.20
2018-10-07T14:19:33.509Z,15.20
2018-10-07T14:22:09.711Z,15.20
2018-10-07T14:24:45.889Z,15.10
2018-10-07T14:27:22.033Z,15.10
2018-10-07T14:29:58.035Z,15.00
2018-10-07T14:32:34.276Z,14.90
2018-10-07T14:35:10.504Z,14.90
2018-10-07T14:37:46.666Z,14.90
2018-10-07T14:40:22.696Z,14.80
2018-10-07T14:42:58.998Z,14.80
2018-10-07T14:45:34.939Z,14.80
2018-10-07T14:48:11.099Z,14.80
2018-10-07T14:50:47.456Z,14.80
2018-10-07T14:53:23.497Z,14.80
2018-10-07T14:55:59.496Z,14.80
2018-10-07T14:58:35.931Z,14.80
2018-10-07T15:01:12.295Z,14.80
2018-10-07T15:03:48.460Z,14.80
2018-10-07T15:06:24.701Z,14.80
2018-10-07T15:09:00.882Z,14.80
2018-10-07T15:11:37.099Z,14.80
2018-10-07T15:14:13.319Z,14.80
2018-10-07T15:16:49.487Z,14.80
2018-10-07T15:19:25.514Z,14.70
2018-10-07T15:22:01.669Z,14.80
2018-10-07T15:24:37.856Z,14.80
2018-10-07T15:27:14.055Z,14.80
2018-10-07T15:29:50.299Z,14.90
2018-10-07T15:32:26.228Z,14.90
2018-10-07T15:35:02.343Z,15.00
2018-10-07T15:37:38.467Z,14.90
2018-10-07T15:40:14.592Z,14.90
2018-10-07T15:42:50.763Z,14.90
2018-10-07T15:45:26.939Z,14.80
2018-10-07T15:48:03.075Z,14.80
2018-10-07T15:50:39.086Z,14.70
2018-10-07T15:53:15.201Z,14.70
2018-10-07T15:55:51.411Z,14.70
2018-10-07T15:58:27.613Z,14.60
2018-10-07T16:01:03.681Z,14.50
2018-10-07T16:03:39.896Z,14.40
2018-10-07T16:06:15.958Z,14.30
2018-10-07T16:08:52.126Z,14.30
2018-10-07T16:11:28.240Z,14.20
2018-10-07T16:14:04.569Z,14.10
2018-10-07T16:16:40.667Z,14.10
2018-10-07T16:19:16.679Z,14.10
2018-10-07T16:21:52.703Z,14.00
2018-10-07T16:24:28.914Z,14.10
2018-10-07T16:27:05.053Z,14.10
2018-10-07T16:29:41.284Z,14.00
2018-10-07T16:32:17.383Z,14.00
2018-10-07T16:34:53.458Z,14.00
2018-10-07T16:37:29.441Z,13.90
2018-10-07T16:40:05.582Z,13.90
2018-10-07T16:42:41.767Z,13.80
2018-10-07T16:45:17.932Z,13.80
2018-10-07T16:47:54.057Z,13.70
2018-10-07T16:50:30.250Z,13.70
2018-10-07T16:53:06.404Z,13.60
2018-10-07T16:55:42.749Z,13.60
2018-10-07T16:58:18.852Z,13.50
2018-10-07T17:00:54.994Z,13.60
2018-10-07T17:03:31.200Z,13.50
2018-10-07T17:06:07.425Z,13.50
2018-10-07T17:08:43.526Z,13.50
2018-10-07T17:11:19.730Z,13.50
2018-10-07T17:13:55.903Z,13.50
2018-10-07T17:16:32.059Z,13.50
2018-10-07T17:19:08.205Z,13.60
2018-10-07T17:21:44.379Z,13.60
2018-10-07T17:24:20.553Z,13.60
2018-10-07T17:26:56.610Z,13.70
2018-10-07T17:29:32.757Z,13.70
2018-10-07T17:32:08.920Z,13.70
2018-10-07T17:34:44.952Z,13.70
2018-10-07T17:37:21.056Z,13.70
2018-10-07T17:39:57.226Z,13.60
2018-10-07T17:42:33.465Z,13.60
2018-10-07T17:45:09.534Z,13.60
2018-10-07T17:47:45.622Z,13.60
2018-10-07T17:50:21.964Z,13.50
2018-10-07T17:52:58.202Z,13.50
2018-10-07T17:55:34.421Z,13.40
2018-10-07T17:58:10.629Z,13.40
2018-10-07T18:00:46.741Z,13.30
2018-10-07T18:03:22.740Z,13.30
2018-10-07T18:05:58.814Z,13.30
2018-10-07T18:08:35.044Z,13.20
2018-10-07T18:11:11.214Z,13.10
2018-10-07T18:13:47.337Z,13.00
2018-10-07T18:16:23.563Z,13.00
2018-10-07T18:18:59.712Z,13.00
2018-10-07T18:21:35.825Z,12.90
2018-10-07T18:24:12.054Z,12.80
2018-10-07T18:26:48.176Z,12.80
2018-10-07T18:29:24.470Z,12.80
2018-10-07T18:32:00.629Z,12.80
2018-10-07T18:34:36.860Z,12.70
2018-10-07T18:37:13.625Z,12.70
2018-10-07T18:39:49.590Z,12.70
2018-10-07T18:42:25.746Z,12.70
2018-10-07T18:45:01.928Z,12.70
2018-10-07T18:47:38.125Z,12.70
2018-10-07T18:50:14.164Z,12.70
2018-10-07T18:52:50.294Z,12.60
2018-10-07T18:55:26.371Z,12.60
2018-10-07T18:58:02.423Z,12.60
2018-10-07T19:00:38.531Z,12.60
2018-10-07T19:03:14.746Z,12.50
2018-10-07T19:05:50.715Z,12.50
2018-10-07T19:08:26.865Z,12.50
2018-10-07T19:11:03.034Z,12.40
2018-10-07T19:13:39.204Z,12.40
2018-10-07T19:16:15.264Z,12.40
2018-10-07T19:18:51.437Z,12.40
2018-10-07T19:21:27.568Z,12.40
2018-10-07T19:24:03.761Z,12.40
2018-10-07T19:26:39.791Z,12.30
2018-10-07T19:29:15.956Z,12.30
2018-10-07T19:31:52.130Z,12.30
2018-10-07T19:34:28.248Z,12.30
2018-10-07T19:37:04.503Z,12.20
2018-10-07T19:39:40.490Z,12.20
2018-10-07T19:42:16.635Z,12.10
2018-10-07T19:44:52.935Z,12.10
2018-10-07T19:47:28.953Z,12.10
2018-10-07T19:50:05.009Z,12.00
2018-10-07T19:52:41.182Z,12.00
2018-10-07T19:55:17.209Z,12.00
2018-10-07T19:57:53.224Z,12.00
2018-10-07T20:00:29.366Z,11.90
2018-10-07T20:03:05.545Z,11.90
2018-10-07T20:05:42.180Z,11.90
2018-10-07T20:08:18.240Z,11.80
2018-10-07T20:10:55.173Z,11.80
2018-10-07T20:13:31.229Z,11.80
2018-10-07T20:16:07.426Z,11.80
2018-10-07T20:18:43.527Z,11.70
2018-10-07T20:21:19.654Z,11.70
2018-10-07T20:23:55.834Z,11.60
2018-10-07T20:26:31.801Z,11.60
2018-10-07T20:29:08.006Z,11.60
2018-10-07T20:31:44.088Z,11.60
2018-10-07T20:34:20.289Z,11.60
2018-10-07T20:36:56.458Z,11.60
2018-10-07T20:39:32.480Z,11.50
2018-10-07T20:42:08.605Z,11.50
2018-10-07T20:44:44.776Z,11.50
2018-10-07T20:47:20.775Z,11.50
2018-10-07T20:49:56.821Z,11.50
2018-10-07T20:52:32.993Z,11.50
2018-10-07T20:55:09.282Z,11.40
2018-10-07T20:57:45.293Z,11.40
2018-10-07T21:00:21.468Z,11.40
2018-10-07T21:02:57.567Z,11.40
2018-10-07T21:05:33.779Z,11.40
2018-10-07T21:08:09.970Z,11.40
2018-10-07T21:10:45.958Z,11.40
2018-10-07T21:13:22.176Z,11.50
2018-10-07T21:15:58.351Z,11.50
2018-10-07T21:18:34.382Z,11.50
2018-10-07T21:21:10.524Z,11.50
2018-10-07T21:23:46.691Z,11.60
2018-10-07T21:26:22.862Z,11.50
2018-10-07T21:28:58.899Z,11.50
2018-10-07T21:31:35.106Z,11.50
2018-10-07T21:34:11.385Z,11.60
2018-10-07T21:36:47.518Z,11.50
2018-10-07T21:39:23.694Z,11.60
2018-10-07T21:41:59.773Z,11.60
2018-10-07T21:44:35.805Z,11.60
2018-10-07T21:47:11.912Z,11.60
2018-10-07T21:49:48.013Z,11.60
2018-10-07T21:52:24.104Z,11.60
2018-10-07T21:55:00.226Z,11.60
2018-10-07T21:57:36.249Z,11.60
2018-10-07T22:00:12.495Z,11.60
2018-10-07T22:02:48.588Z,11.60
2018-10-07T22:05:24.558Z,11.60
2018-10-07T22:08:00.737Z,11.70
2018-10-07T22:10:37.005Z,11.60
2018-10-07T22:13:13.034Z,11.60
2018-10-07T22:15:49.180Z,11.60
2018-10-07T22:18:25.388Z,11.60
2018-10-07T22:21:01.520Z,11.60
2018-10-07T22:23:37.717Z,11.50
2018-10-07T22:26:13.977Z,11.50
2018-10-07T22:28:50.065Z,11.50
2018-10-07T22:31:26.196Z,11.50
2018-10-07T22:34:02.347Z,11.50
2018-10-07T22:36:38.322Z,11.50
2018-10-07T22:39:14.546Z,11.40
2018-10-07T22:41:50.695Z,11.30
2018-10-07T22:44:26.866Z,11.30
2018-10-07T22:47:03.024Z,11.30
2018-10-07T22:49:39.209Z,11.20
2018-10-07T22:52:15.296Z,11.10
2018-10-07T22:54:51.400Z,11.10
2018-10-07T22:57:27.464Z,11.10
2018-10-07T23:00:03.502Z,11.00
2018-10-07T23:02:39.826Z,11.00
2018-10-07T23:05:15.869Z,11.00
2018-10-07T23:07:51.923Z,10.90
2018-10-07T23:10:28.048Z,10.80
2018-10-07T23:13:04.183Z,10.80
2018-10-07T23:15:40.269Z,10.70
2018-10-07T23:18:16.430Z,10.70
2018-10-07T23:20:52.590Z,10.70
2018-10-07T23:23:28.790Z,10.70
2018-10-07T23:26:05.028Z,10.70
2018-10-07T23:28:41.064Z,10.60
2018-10-07T23:31:17.273Z,10.60
2018-10-07T23:33:53.402Z,10.50
2018-10-07T23:36:29.416Z,10.50
2018-10-07T23:39:09.680Z,10.50
2018-10-07T23:41:45.711Z,10.50
2018-10-07T23:44:21.840Z,10.50
2018-10-07T23:46:57.971Z,10.40
2018-10-07T23:49:34.136Z,10.40
2018-10-07T23:52:10.354Z,10.40
2018-10-07T23:54:46.467Z,10.30
2018-10-07T23:57:22.627Z,10.30
2018-10-07T23:59:58.805Z,10.30
